sensor_id;sensor_type;location;lat;lon;timestamp;temperature;humidity
10524;DHT22;5310;48.638;9.060;2022-08-19T00:02:05;19.50;99.90
10524;DHT22;5310;48.638;9.060;2022-08-19T00:04:33;19.50;99.90
10524;DHT22;5310;48.638;9.060;2022-08-19T00:07:01;19.50;99.90
10524;DHT22;5310;48.638;9.060;2022-08-19T00:09:27;19.50;99.70
10524;DHT22;5310;48.638;9.060;2022-08-19T00:19:13;19.50;99.90
10524;DHT22;5310;48.638;9.060;2022-08-19T00:21:38;19.50;99.90
10524;DHT22;5310;48.638;9.060;2022-08-19T00:24:05;19.50;99.90
10524;DHT22;5310;48.638;9.060;2022-08-19T00:26:31;19.50;99.90
10524;DHT22;5310;48.638;9.060;2022-08-19T00:28:57;19.50;99.90
10524;DHT22;5310;48.638;9.060;2022-08-19T00:33:50;19.50;99.90
10524;DHT22;5310;48.638;9.060;2022-08-19T00:36:15;19.50;99.90
10524;DHT22;5310;48.638;9.060;2022-08-19T00:38:41;19.50;99.90
10524;DHT22;5310;48.638;9.060;2022-08-19T00:41:09;19.40;99.90
10524;DHT22;5310;48.638;9.060;2022-08-19T00:46:01;19.30;99.90
10524;DHT22;5310;48.638;9.060;2022-08-19T00:50:55;19.10;99.90
10524;DHT22;5310;48.638;9.060;2022-08-19T00:53:23;19.10;99.90
10524;DHT22;5310;48.638;9.060;2022-08-19T00:55:50;19.10;99.90
10524;DHT22;5310;48.638;9.060;2022-08-19T01:03:09;18.90;99.90
10524;DHT22;5310;48.638;9.060;2022-08-19T01:05:35;18.90;99.90
10524;DHT22;5310;48.638;9.060;2022-08-19T01:08:02;18.80;99.90
10524;DHT22;5310;48.638;9.060;2022-08-19T01:10:31;18.80;99.90
10524;DHT22;5310;48.638;9.060;2022-08-19T01:12:57;18.80;99.90
10524;DHT22;5310;48.638;9.060;2022-08-19T01:20:17;18.80;99.90
10524;DHT22;5310;48.638;9.060;2022-08-19T01:22:54;18.70;99.90
10524;DHT22;5310;48.638;9.060;2022-08-19T01:25:25;18.70;99.90
10524;DHT22;5310;48.638;9.060;2022-08-19T01:30:20;18.70;99.90
10524;DHT22;5310;48.638;9.060;2022-08-19T01:32:48;18.70;99.90
10524;DHT22;5310;48.638;9.060;2022-08-19T01:35:13;18.70;99.90
10524;DHT22;5310;48.638;9.060;2022-08-19T01:37:44;18.70;99.90
10524;DHT22;5310;48.638;9.060;2022-08-19T01:45:02;18.70;99.90
10524;DHT22;5310;48.638;9.060;2022-08-19T01:49:54;18.60;99.90
10524;DHT22;5310;48.638;9.060;2022-08-19T01:52:19;18.60;99.90
10524;DHT22;5310;48.638;9.060;2022-08-19T01:57:11;18.50;99.90
10524;DHT22;5310;48.638;9.060;2022-08-19T01:59:37;18.50;99.90
10524;DHT22;5310;48.638;9.060;2022-08-19T02:02:04;18.50;99.90
10524;DHT22;5310;48.638;9.060;2022-08-19T02:04:32;18.40;99.90
10524;DHT22;5310;48.638;9.060;2022-08-19T02:06:57;18.40;99.90
10524;DHT22;5310;48.638;9.060;2022-08-19T02:09:23;18.40;99.90
10524;DHT22;5310;48.638;9.060;2022-08-19T02:14:14;18.40;99.90
10524;DHT22;5310;48.638;9.060;2022-08-19T02:16:40;18.40;99.90
10524;DHT22;5310;48.638;9.060;2022-08-19T02:19:05;18.30;99.90
10524;DHT22;5310;48.638;9.060;2022-08-19T02:21:31;18.30;99.90
10524;DHT22;5310;48.638;9.060;2022-08-19T02:23:57;18.40;99.90
10524;DHT22;5310;48.638;9.060;2022-08-19T02:26:23;18.30;99.90
10524;DHT22;5310;48.638;9.060;2022-08-19T02:28:49;18.30;99.90
10524;DHT22;5310;48.638;9.060;2022-08-19T02:31:15;18.30;99.90
10524;DHT22;5310;48.638;9.060;2022-08-19T02:33:42;18.30;99.90
10524;DHT22;5310;48.638;9.060;2022-08-19T02:36:07;18.30;99.90
10524;DHT22;5310;48.638;9.060;2022-08-19T02:38:34;18.30;99.90
10524;DHT22;5310;48.638;9.060;2022-08-19T02:41:01;18.30;99.90
10524;DHT22;5310;48.638;9.060;2022-08-19T02:43:27;18.30;99.90
10524;DHT22;5310;48.638;9.060;2022-08-19T02:45:53;18.20;99.90
10524;DHT22;5310;48.638;9.060;2022-08-19T02:48:19;18.30;99.90
10524;DHT22;5310;48.638;9.060;2022-08-19T02:50:45;18.20;99.90
10524;DHT22;5310;48.638;9.060;2022-08-19T02:53:11;18.30;99.90
10524;DHT22;5310;48.638;9.060;2022-08-19T02:55:42;18.30;99.90
10524;DHT22;5310;48.638;9.060;2022-08-19T02:58:08;18.30;99.90
10524;DHT22;5310;48.638;9.060;2022-08-19T03:02:59;18.30;99.90
10524;DHT22;5310;48.638;9.060;2022-08-19T03:05:25;18.30;99.90
10524;DHT22;5310;48.638;9.060;2022-08-19T03:07:52;18.20;99.90
10524;DHT22;5310;48.638;9.060;2022-08-19T03:10:17;18.20;99.90
10524;DHT22;5310;48.638;9.060;2022-08-19T03:15:10;18.20;99.90
10524;DHT22;5310;48.638;9.060;2022-08-19T03:20:02;18.20;99.90
10524;DHT22;5310;48.638;9.060;2022-08-19T03:24:55;18.20;99.90
10524;DHT22;5310;48.638;9.060;2022-08-19T03:29:46;18.20;99.90
10524;DHT22;5310;48.638;9.060;2022-08-19T03:32:13;18.30;99.90
10524;DHT22;5310;48.638;9.060;2022-08-19T03:34:38;18.30;99.90
10524;DHT22;5310;48.638;9.060;2022-08-19T03:37:07;18.30;99.90
10524;DHT22;5310;48.638;9.060;2022-08-19T03:39:35;18.30;99.90
10524;DHT22;5310;48.638;9.060;2022-08-19T03:42:01;18.20;99.90
10524;DHT22;5310;48.638;9.060;2022-08-19T03:44:27;18.20;99.90
10524;DHT22;5310;48.638;9.060;2022-08-19T03:46:58;18.20;99.90
10524;DHT22;5310;48.638;9.060;2022-08-19T03:49:25;18.20;99.90
10524;DHT22;5310;48.638;9.060;2022-08-19T03:51:53;18.30;99.90
10524;DHT22;5310;48.638;9.060;2022-08-19T03:54:19;18.20;99.90
10524;DHT22;5310;48.638;9.060;2022-08-19T03:56:46;18.30;99.90
10524;DHT22;5310;48.638;9.060;2022-08-19T03:59:15;18.30;99.90
10524;DHT22;5310;48.638;9.060;2022-08-19T04:01:40;18.30;99.90
10524;DHT22;5310;48.638;9.060;2022-08-19T04:06:32;18.20;99.90
10524;DHT22;5310;48.638;9.060;2022-08-19T04:09:00;18.20;99.90
10524;DHT22;5310;48.638;9.060;2022-08-19T04:11:31;18.20;99.90
10524;DHT22;5310;48.638;9.060;2022-08-19T04:13:57;18.20;99.90
10524;DHT22;5310;48.638;9.060;2022-08-19T04:16:23;18.20;99.90
10524;DHT22;5310;48.638;9.060;2022-08-19T04:18:49;18.20;99.90
10524;DHT22;5310;48.638;9.060;2022-08-19T04:21:19;18.20;99.90
10524;DHT22;5310;48.638;9.060;2022-08-19T04:23:46;18.20;99.90
10524;DHT22;5310;48.638;9.060;2022-08-19T04:26:13;18.20;99.90
10524;DHT22;5310;48.638;9.060;2022-08-19T04:31:04;18.10;99.90
10524;DHT22;5310;48.638;9.060;2022-08-19T04:33:30;18.10;99.90
10524;DHT22;5310;48.638;9.060;2022-08-19T04:35:55;18.10;99.90
10524;DHT22;5310;48.638;9.060;2022-08-19T04:38:23;18.10;99.90
10524;DHT22;5310;48.638;9.060;2022-08-19T04:40:49;18.30;99.90
10524;DHT22;5310;48.638;9.060;2022-08-19T04:43:34;18.40;99.90
10524;DHT22;5310;48.638;9.060;2022-08-19T04:46:07;18.40;99.90
10524;DHT22;5310;48.638;9.060;2022-08-19T04:48:33;18.60;99.90
10524;DHT22;5310;48.638;9.060;2022-08-19T04:50:58;18.80;99.90
10524;DHT22;5310;48.638;9.060;2022-08-19T04:53:27;18.60;99.90
10524;DHT22;5310;48.638;9.060;2022-08-19T04:55:54;18.60;99.90
10524;DHT22;5310;48.638;9.060;2022-08-19T04:58:20;18.60;99.90
10524;DHT22;5310;48.638;9.060;2022-08-19T05:00:45;18.70;99.90
10524;DHT22;5310;48.638;9.060;2022-08-19T05:03:11;18.70;99.90
10524;DHT22;5310;48.638;9.060;2022-08-19T05:05:40;18.80;99.90
10524;DHT22;5310;48.638;9.060;2022-08-19T05:08:06;18.60;99.90
10524;DHT22;5310;48.638;9.060;2022-08-19T05:10:34;18.50;99.90
10524;DHT22;5310;48.638;9.060;2022-08-19T05:17:51;18.70;99.90
10524;DHT22;5310;48.638;9.060;2022-08-19T05:25:47;18.80;99.90
10524;DHT22;5310;48.638;9.060;2022-08-19T05:28:13;18.70;99.90
10524;DHT22;5310;48.638;9.060;2022-08-19T05:30:38;18.70;99.90
10524;DHT22;5310;48.638;9.060;2022-08-19T05:33:06;18.70;99.90
10524;DHT22;5310;48.638;9.060;2022-08-19T05:35:35;18.60;99.90
10524;DHT22;5310;48.638;9.060;2022-08-19T05:40:27;18.70;99.90
10524;DHT22;5310;48.638;9.060;2022-08-19T05:42:52;18.70;99.90
10524;DHT22;5310;48.638;9.060;2022-08-19T05:45:18;18.70;99.90
10524;DHT22;5310;48.638;9.060;2022-08-19T05:50:10;18.80;99.90
10524;DHT22;5310;48.638;9.060;2022-08-19T05:52:36;18.70;99.90
10524;DHT22;5310;48.638;9.060;2022-08-19T05:55:03;18.70;99.90
10524;DHT22;5310;48.638;9.060;2022-08-19T05:57:28;18.60;99.90
10524;DHT22;5310;48.638;9.060;2022-08-19T05:59:54;18.80;99.90
10524;DHT22;5310;48.638;9.060;2022-08-19T06:04:47;18.90;99.90
10524;DHT22;5310;48.638;9.060;2022-08-19T06:07:13;19.00;99.90
10524;DHT22;5310;48.638;9.060;2022-08-19T06:12:04;18.80;99.90
10524;DHT22;5310;48.638;9.060;2022-08-19T06:14:31;19.00;99.90
10524;DHT22;5310;48.638;9.060;2022-08-19T06:16:57;19.00;99.90
10524;DHT22;5310;48.638;9.060;2022-08-19T06:19:23;19.00;99.90
10524;DHT22;5310;48.638;9.060;2022-08-19T06:21:49;18.90;99.90
10524;DHT22;5310;48.638;9.060;2022-08-19T06:26:42;19.00;99.90
10524;DHT22;5310;48.638;9.060;2022-08-19T06:29:09;19.00;99.90
10524;DHT22;5310;48.638;9.060;2022-08-19T06:31:35;19.00;99.90
10524;DHT22;5310;48.638;9.060;2022-08-19T06:34:01;19.00;99.90
10524;DHT22;5310;48.638;9.060;2022-08-19T06:38:57;19.00;99.90
10524;DHT22;5310;48.638;9.060;2022-08-19T06:41:23;19.10;99.90
10524;DHT22;5310;48.638;9.060;2022-08-19T06:43:48;19.00;99.90
10524;DHT22;5310;48.638;9.060;2022-08-19T06:48:40;19.20;99.90
10524;DHT22;5310;48.638;9.060;2022-08-19T06:51:06;18.90;99.90
10524;DHT22;5310;48.638;9.060;2022-08-19T06:53:32;19.00;99.90
10524;DHT22;5310;48.638;9.060;2022-08-19T06:55:57;19.00;99.90
10524;DHT22;5310;48.638;9.060;2022-08-19T07:00:53;19.00;99.90
10524;DHT22;5310;48.638;9.060;2022-08-19T07:03:19;19.20;99.90
10524;DHT22;5310;48.638;9.060;2022-08-19T07:08:10;19.20;99.90
10524;DHT22;5310;48.638;9.060;2022-08-19T07:10:35;19.20;99.90
10524;DHT22;5310;48.638;9.060;2022-08-19T07:13:02;19.30;99.90
10524;DHT22;5310;48.638;9.060;2022-08-19T07:15:28;19.40;99.90
10524;DHT22;5310;48.638;9.060;2022-08-19T07:17:53;19.30;99.90
10524;DHT22;5310;48.638;9.060;2022-08-19T07:20:19;19.30;99.90
10524;DHT22;5310;48.638;9.060;2022-08-19T07:25:10;19.50;99.90
10524;DHT22;5310;48.638;9.060;2022-08-19T07:30:03;19.30;99.90
10524;DHT22;5310;48.638;9.060;2022-08-19T07:37:22;19.30;99.90
10524;DHT22;5310;48.638;9.060;2022-08-19T07:42:13;19.40;99.90
10524;DHT22;5310;48.638;9.060;2022-08-19T07:49:32;19.30;99.90
10524;DHT22;5310;48.638;9.060;2022-08-19T07:52:02;19.20;99.90
10524;DHT22;5310;48.638;9.060;2022-08-19T07:54:29;19.30;99.90
10524;DHT22;5310;48.638;9.060;2022-08-19T07:59:21;19.20;99.90
10524;DHT22;5310;48.638;9.060;2022-08-19T08:01:47;19.10;99.90
10524;DHT22;5310;48.638;9.060;2022-08-19T08:04:13;19.00;99.90
10524;DHT22;5310;48.638;9.060;2022-08-19T08:06:57;19.10;99.90
10524;DHT22;5310;48.638;9.060;2022-08-19T08:09:42;19.20;99.90
10524;DHT22;5310;48.638;9.060;2022-08-19T08:17:01;19.10;99.90
10524;DHT22;5310;48.638;9.060;2022-08-19T08:19:28;19.20;99.90
10524;DHT22;5310;48.638;9.060;2022-08-19T08:21:54;19.10;99.90
10524;DHT22;5310;48.638;9.060;2022-08-19T08:24:20;19.20;99.90
10524;DHT22;5310;48.638;9.060;2022-08-19T08:26:46;19.10;99.90
10524;DHT22;5310;48.638;9.060;2022-08-19T08:31:39;19.10;99.90
10524;DHT22;5310;48.638;9.060;2022-08-19T08:34:05;19.20;99.90
10524;DHT22;5310;48.638;9.060;2022-08-19T08:36:30;19.10;99.90
10524;DHT22;5310;48.638;9.060;2022-08-19T08:38:58;19.20;99.90
10524;DHT22;5310;48.638;9.060;2022-08-19T08:48:49;18.90;99.90
10524;DHT22;5310;48.638;9.060;2022-08-19T08:53:44;18.70;99.90
10524;DHT22;5310;48.638;9.060;2022-08-19T08:56:12;18.70;99.90
10524;DHT22;5310;48.638;9.060;2022-08-19T09:01:22;18.60;99.90
10524;DHT22;5310;48.638;9.060;2022-08-19T09:03:47;18.60;99.90
10524;DHT22;5310;48.638;9.060;2022-08-19T09:06:25;18.60;99.90
10524;DHT22;5310;48.638;9.060;2022-08-19T09:11:48;18.60;99.90
10524;DHT22;5310;48.638;9.060;2022-08-19T09:21:45;18.90;99.90
10524;DHT22;5310;48.638;9.060;2022-08-19T09:26:37;19.00;99.90
10524;DHT22;5310;48.638;9.060;2022-08-19T09:31:31;19.00;99.90
10524;DHT22;5310;48.638;9.060;2022-08-19T09:33:58;19.00;99.90
10524;DHT22;5310;48.638;9.060;2022-08-19T09:36:25;19.10;99.90
10524;DHT22;5310;48.638;9.060;2022-08-19T09:38:51;19.00;99.90
10524;DHT22;5310;48.638;9.060;2022-08-19T09:41:18;19.10;99.90
10524;DHT22;5310;48.638;9.060;2022-08-19T09:43:45;19.10;99.90
10524;DHT22;5310;48.638;9.060;2022-08-19T09:46:11;19.10;99.90
10524;DHT22;5310;48.638;9.060;2022-08-19T09:48:37;19.00;99.90
10524;DHT22;5310;48.638;9.060;2022-08-19T09:51:10;19.10;99.90
10524;DHT22;5310;48.638;9.060;2022-08-19T09:53:37;19.20;99.90
10524;DHT22;5310;48.638;9.060;2022-08-19T09:56:03;19.20;99.90
10524;DHT22;5310;48.638;9.060;2022-08-19T09:58:29;19.20;99.90
10524;DHT22;5310;48.638;9.060;2022-08-19T10:00:55;19.20;99.90
10524;DHT22;5310;48.638;9.060;2022-08-19T10:05:47;19.30;99.90
10524;DHT22;5310;48.638;9.060;2022-08-19T10:08:16;19.20;99.90
10524;DHT22;5310;48.638;9.060;2022-08-19T10:13:11;19.20;99.90
10524;DHT22;5310;48.638;9.060;2022-08-19T10:15:37;19.20;99.90
10524;DHT22;5310;48.638;9.060;2022-08-19T10:20:30;19.20;99.90
10524;DHT22;5310;48.638;9.060;2022-08-19T10:22:56;19.20;99.90
10524;DHT22;5310;48.638;9.060;2022-08-19T10:25:21;19.20;99.90
10524;DHT22;5310;48.638;9.060;2022-08-19T10:27:46;19.30;99.90
10524;DHT22;5310;48.638;9.060;2022-08-19T10:32:38;19.20;99.90
10524;DHT22;5310;48.638;9.060;2022-08-19T10:35:03;19.20;99.90
10524;DHT22;5310;48.638;9.060;2022-08-19T10:37:33;19.20;99.90
10524;DHT22;5310;48.638;9.060;2022-08-19T10:39:59;19.20;99.90
10524;DHT22;5310;48.638;9.060;2022-08-19T10:42:24;19.20;99.90
10524;DHT22;5310;48.638;9.060;2022-08-19T10:49:41;19.50;99.90
10524;DHT22;5310;48.638;9.060;2022-08-19T10:52:26;19.50;99.90
10524;DHT22;5310;48.638;9.060;2022-08-19T10:55:01;19.60;99.90
10524;DHT22;5310;48.638;9.060;2022-08-19T11:00:11;19.70;99.90
10524;DHT22;5310;48.638;9.060;2022-08-19T11:02:36;19.70;99.90
10524;DHT22;5310;48.638;9.060;2022-08-19T11:05:02;19.70;99.90
10524;DHT22;5310;48.638;9.060;2022-08-19T11:07:28;19.80;99.90
10524;DHT22;5310;48.638;9.060;2022-08-19T11:09:53;19.90;99.90
10524;DHT22;5310;48.638;9.060;2022-08-19T11:17:10;20.10;99.90
10524;DHT22;5310;48.638;9.060;2022-08-19T11:19:39;20.10;99.90
10524;DHT22;5310;48.638;9.060;2022-08-19T11:22:06;20.20;99.90
10524;DHT22;5310;48.638;9.060;2022-08-19T11:27:04;20.30;99.90
10524;DHT22;5310;48.638;9.060;2022-08-19T11:34:23;20.20;99.90
10524;DHT22;5310;48.638;9.060;2022-08-19T11:39:15;20.30;99.90
10524;DHT22;5310;48.638;9.060;2022-08-19T11:41:41;20.40;99.90
10524;DHT22;5310;48.638;9.060;2022-08-19T11:44:07;20.50;99.90
10524;DHT22;5310;48.638;9.060;2022-08-19T11:46:33;20.50;99.90
10524;DHT22;5310;48.638;9.060;2022-08-19T11:51:26;20.80;99.90
10524;DHT22;5310;48.638;9.060;2022-08-19T11:53:52;20.80;99.90
10524;DHT22;5310;48.638;9.060;2022-08-19T11:56:19;21.00;99.90
10524;DHT22;5310;48.638;9.060;2022-08-19T11:58:45;21.00;99.20
10524;DHT22;5310;48.638;9.060;2022-08-19T12:01:11;21.00;99.90
10524;DHT22;5310;48.638;9.060;2022-08-19T12:03:38;21.10;99.90
10524;DHT22;5310;48.638;9.060;2022-08-19T12:10:56;21.30;99.90
10524;DHT22;5310;48.638;9.060;2022-08-19T12:13:21;21.40;99.20
10524;DHT22;5310;48.638;9.060;2022-08-19T12:20:40;21.50;99.30
10524;DHT22;5310;48.638;9.060;2022-08-19T12:23:07;21.60;97.90
10524;DHT22;5310;48.638;9.060;2022-08-19T12:25:34;21.60;98.90
10524;DHT22;5310;48.638;9.060;2022-08-19T12:27:59;21.60;99.00
10524;DHT22;5310;48.638;9.060;2022-08-19T12:32:51;21.60;99.00
10524;DHT22;5310;48.638;9.060;2022-08-19T12:35:17;21.70;99.20
10524;DHT22;5310;48.638;9.060;2022-08-19T12:37:45;21.80;97.40
10524;DHT22;5310;48.638;9.060;2022-08-19T12:45:10;22.00;98.30
10524;DHT22;5310;48.638;9.060;2022-08-19T12:47:37;22.00;97.60
10524;DHT22;5310;48.638;9.060;2022-08-19T12:50:03;22.10;98.10
10524;DHT22;5310;48.638;9.060;2022-08-19T12:57:27;22.10;99.30
10524;DHT22;5310;48.638;9.060;2022-08-19T12:59:52;22.20;99.80
10524;DHT22;5310;48.638;9.060;2022-08-19T13:07:10;22.10;99.50
10524;DHT22;5310;48.638;9.060;2022-08-19T13:09:37;22.10;99.90
10524;DHT22;5310;48.638;9.060;2022-08-19T13:12:02;21.90;99.90
10524;DHT22;5310;48.638;9.060;2022-08-19T13:14:28;21.70;99.90
10524;DHT22;5310;48.638;9.060;2022-08-19T13:19:22;21.20;99.90
10524;DHT22;5310;48.638;9.060;2022-08-19T13:24:14;20.90;99.90
10524;DHT22;5310;48.638;9.060;2022-08-19T13:26:40;20.70;99.90
10524;DHT22;5310;48.638;9.060;2022-08-19T13:31:57;20.60;99.90
10524;DHT22;5310;48.638;9.060;2022-08-19T13:34:41;20.70;99.90
10524;DHT22;5310;48.638;9.060;2022-08-19T13:37:06;20.50;99.90
10524;DHT22;5310;48.638;9.060;2022-08-19T13:41:58;20.40;99.90
10524;DHT22;5310;48.638;9.060;2022-08-19T13:44:26;20.40;99.90
10524;DHT22;5310;48.638;9.060;2022-08-19T13:49:18;20.30;99.90
10524;DHT22;5310;48.638;9.060;2022-08-19T13:51:45;20.30;99.90
10524;DHT22;5310;48.638;9.060;2022-08-19T13:54:11;20.20;99.90
10524;DHT22;5310;48.638;9.060;2022-08-19T14:01:28;19.90;99.90
10524;DHT22;5310;48.638;9.060;2022-08-19T14:06:21;20.10;99.90
10524;DHT22;5310;48.638;9.060;2022-08-19T14:08:47;20.10;99.90
10524;DHT22;5310;48.638;9.060;2022-08-19T14:11:13;20.20;99.90
10524;DHT22;5310;48.638;9.060;2022-08-19T14:13:38;20.20;99.90
10524;DHT22;5310;48.638;9.060;2022-08-19T14:16:08;20.10;99.90
10524;DHT22;5310;48.638;9.060;2022-08-19T14:18:33;20.10;99.90
10524;DHT22;5310;48.638;9.060;2022-08-19T14:20:59;20.00;99.90
10524;DHT22;5310;48.638;9.060;2022-08-19T14:23:24;20.00;99.90
10524;DHT22;5310;48.638;9.060;2022-08-19T14:25:50;20.00;99.90
10524;DHT22;5310;48.638;9.060;2022-08-19T14:30:42;20.00;99.90
10524;DHT22;5310;48.638;9.060;2022-08-19T14:33:09;20.10;99.90
10524;DHT22;5310;48.638;9.060;2022-08-19T14:35:35;20.30;99.90
10524;DHT22;5310;48.638;9.060;2022-08-19T14:40:27;20.40;99.90
10524;DHT22;5310;48.638;9.060;2022-08-19T14:42:57;20.60;99.90
10524;DHT22;5310;48.638;9.060;2022-08-19T14:45:25;20.60;99.90
10524;DHT22;5310;48.638;9.060;2022-08-19T14:47:50;20.80;99.90
10524;DHT22;5310;48.638;9.060;2022-08-19T14:50:16;20.70;99.90
10524;DHT22;5310;48.638;9.060;2022-08-19T14:55:08;20.90;99.90
10524;DHT22;5310;48.638;9.060;2022-08-19T14:57:34;20.80;99.90
10524;DHT22;5310;48.638;9.060;2022-08-19T14:59:59;20.80;99.90
10524;DHT22;5310;48.638;9.060;2022-08-19T15:02:24;21.10;99.90
10524;DHT22;5310;48.638;9.060;2022-08-19T15:04:50;21.20;99.90
10524;DHT22;5310;48.638;9.060;2022-08-19T15:07:16;21.20;99.90
10524;DHT22;5310;48.638;9.060;2022-08-19T15:09:41;21.30;99.90
10524;DHT22;5310;48.638;9.060;2022-08-19T15:12:07;21.30;99.90
10524;DHT22;5310;48.638;9.060;2022-08-19T15:14:35;21.20;99.90
10524;DHT22;5310;48.638;9.060;2022-08-19T15:17:01;21.40;99.90
10524;DHT22;5310;48.638;9.060;2022-08-19T15:19:27;21.40;99.90
10524;DHT22;5310;48.638;9.060;2022-08-19T15:21:53;21.50;99.90
10524;DHT22;5310;48.638;9.060;2022-08-19T15:26:45;21.60;99.90
10524;DHT22;5310;48.638;9.060;2022-08-19T15:29:11;21.80;99.90
10524;DHT22;5310;48.638;9.060;2022-08-19T15:31:39;22.00;99.90
10524;DHT22;5310;48.638;9.060;2022-08-19T15:34:05;22.20;99.90
10524;DHT22;5310;48.638;9.060;2022-08-19T15:36:31;22.10;99.90
10524;DHT22;5310;48.638;9.060;2022-08-19T15:38:57;22.30;99.90
10524;DHT22;5310;48.638;9.060;2022-08-19T15:41:27;22.50;99.90
10524;DHT22;5310;48.638;9.060;2022-08-19T15:43:54;22.80;99.90
10524;DHT22;5310;48.638;9.060;2022-08-19T15:46:21;23.10;99.90
10524;DHT22;5310;48.638;9.060;2022-08-19T15:48:48;23.50;99.00
10524;DHT22;5310;48.638;9.060;2022-08-19T15:51:14;23.80;98.40
10524;DHT22;5310;48.638;9.060;2022-08-19T15:56:06;24.00;92.40
10524;DHT22;5310;48.638;9.060;2022-08-19T16:01:16;24.10;90.80
10524;DHT22;5310;48.638;9.060;2022-08-19T16:04:00;24.40;92.60
10524;DHT22;5310;48.638;9.060;2022-08-19T16:06:46;24.50;87.20
10524;DHT22;5310;48.638;9.060;2022-08-19T16:58:20;23.70;85.10
10524;DHT22;5310;48.638;9.060;2022-08-19T17:05:50;23.60;85.50
10524;DHT22;5310;48.638;9.060;2022-08-19T17:08:19;23.40;86.30
10524;DHT22;5310;48.638;9.060;2022-08-19T18:02:09;22.10;99.70
10524;DHT22;5310;48.638;9.060;2022-08-19T19:58:32;20.40;93.80
10524;DHT22;5310;48.638;9.060;2022-08-19T20:30:40;20.40;93.40
10524;DHT22;5310;48.638;9.060;2022-08-19T21:14:41;20.00;94.60
10524;DHT22;5310;48.638;9.060;2022-08-19T22:30:24;20.00;98.60
10524;DHT22;5310;48.638;9.060;2022-08-19T22:59:48;19.50;99.90
10524;DHT22;5310;48.638;9.060;2022-08-19T23:26:46;18.90;99.90
